createdAt,value
2018-05-08T00:00:29.395Z,3.30
2018-05-08T00:02:57.131Z,3.17
2018-05-08T00:05:25.956Z,3.20
2018-05-08T00:07:53.607Z,3.27
2018-05-08T00:10:24.826Z,3.03
2018-05-08T00:12:52.538Z,2.50
2018-05-08T00:15:20.242Z,2.90
2018-05-08T00:17:47.982Z,2.77
2018-05-08T00:20:15.656Z,2.90
2018-05-08T00:22:44.794Z,3.03
2018-05-08T00:25:12.496Z,3.60
2018-05-08T00:27:40.139Z,2.90
2018-05-08T00:30:07.838Z,3.30
2018-05-08T00:32:35.510Z,3.10
2018-05-08T00:35:03.379Z,2.63
2018-05-08T00:37:31.095Z,3.13
2018-05-08T00:39:59.500Z,3.20
2018-05-08T00:42:28.482Z,3.10
2018-05-08T00:44:56.142Z,2.57
2018-05-08T00:47:24.754Z,2.70
2018-05-08T00:49:53.174Z,3.00
2018-05-08T00:52:21.477Z,2.63
2018-05-08T00:55:07.291Z,3.30
2018-05-08T00:57:37.469Z,3.27
2018-05-08T01:00:06.003Z,3.03
2018-05-08T01:02:33.715Z,2.70
2018-05-08T01:05:29.397Z,3.30
2018-05-08T01:07:57.639Z,3.27
2018-05-08T01:10:25.410Z,3.27
2018-05-08T01:12:53.873Z,3.40
2018-05-08T01:15:22.327Z,3.03
2018-05-08T01:18:00.057Z,2.83
2018-05-08T01:20:29.441Z,3.10
2018-05-08T01:22:57.328Z,2.87
2018-05-08T01:25:25.107Z,3.00
2018-05-08T01:27:53.044Z,3.17
2018-05-08T01:30:22.550Z,3.47
2018-05-08T01:32:51.498Z,3.33
2018-05-08T01:35:19.153Z,2.73
2018-05-08T01:37:46.866Z,2.80
2018-05-08T01:40:14.554Z,2.70
2018-05-08T01:42:42.999Z,3.10
2018-05-08T01:45:11.509Z,2.83
2018-05-08T01:47:40.528Z,2.90
2018-05-08T01:50:09.412Z,2.93
2018-05-08T01:52:37.435Z,2.77
2018-05-08T01:55:06.061Z,3.03
2018-05-08T01:57:34.417Z,3.00
2018-05-08T02:00:03.181Z,2.70
2018-05-08T02:02:32.958Z,3.10
2018-05-08T02:05:00.934Z,3.10
2018-05-08T02:07:28.848Z,2.97
2018-05-08T02:09:57.519Z,3.10
2018-05-08T02:12:27.691Z,2.73
2018-05-08T02:14:55.449Z,2.77
2018-05-08T02:17:25.769Z,2.93
2018-05-08T02:19:55.895Z,2.97
2018-05-08T02:22:23.669Z,2.80
2018-05-08T02:24:51.370Z,3.33
2018-05-08T02:27:23.111Z,3.10
2018-05-08T02:29:51.775Z,3.20
2018-05-08T02:32:19.552Z,3.20
2018-05-08T02:34:47.256Z,3.50
2018-05-08T02:37:18.996Z,2.90
2018-05-08T02:39:47.001Z,3.10
2018-05-08T02:42:15.483Z,3.37
2018-05-08T02:44:43.127Z,3.57
2018-05-08T02:47:11.044Z,3.40
2018-05-08T02:49:38.980Z,3.13
2018-05-08T02:52:06.699Z,3.33
2018-05-08T02:54:34.306Z,3.37
2018-05-08T02:57:01.944Z,3.40
2018-05-08T02:59:29.567Z,3.37
2018-05-08T03:01:57.185Z,3.30
2018-05-08T03:04:24.840Z,3.87
2018-05-08T03:06:52.454Z,3.50
2018-05-08T03:09:20.074Z,3.10
2018-05-08T03:11:47.726Z,3.17
2018-05-08T03:14:15.353Z,3.27
2018-05-08T03:16:43.762Z,3.10
2018-05-08T03:19:11.394Z,3.30
2018-05-08T03:21:39.777Z,3.10
2018-05-08T03:24:07.468Z,2.93
2018-05-08T03:26:35.145Z,3.10
2018-05-08T03:29:02.865Z,3.27
2018-05-08T03:31:30.458Z,3.20
2018-05-08T03:33:58.105Z,3.03
2018-05-08T03:36:25.729Z,3.67
2018-05-08T03:38:53.432Z,3.60
2018-05-08T03:41:21.037Z,3.50
2018-05-08T03:43:48.686Z,3.20
2018-05-08T03:46:16.272Z,3.27
2018-05-08T03:48:43.924Z,3.27
2018-05-08T03:51:11.527Z,3.50
2018-05-08T03:53:39.439Z,3.30
2018-05-08T03:56:07.079Z,3.47
2018-05-08T03:58:34.711Z,3.47
2018-05-08T04:01:14.157Z,3.20
2018-05-08T04:03:53.918Z,3.50
2018-05-08T04:06:27.514Z,3.23
2018-05-08T04:08:55.954Z,3.30
2018-05-08T04:11:23.595Z,3.30
2018-05-08T04:13:51.327Z,3.23
2018-05-08T04:16:22.092Z,3.53
2018-05-08T04:18:49.829Z,3.40
2018-05-08T04:21:19.451Z,3.77
2018-05-08T04:23:48.053Z,3.47
2018-05-08T04:26:16.299Z,3.40
2018-05-08T04:28:45.016Z,3.40
2018-05-08T04:31:13.690Z,3.77
2018-05-08T04:36:51.670Z,3.50
2018-05-08T04:39:19.287Z,3.50
2018-05-08T04:41:47.678Z,3.33
2018-05-08T04:44:15.332Z,3.40
2018-05-08T04:46:43.684Z,3.30
2018-05-08T04:49:12.131Z,3.77
2018-05-08T04:51:40.121Z,3.50
2018-05-08T04:54:07.788Z,3.80
2018-05-08T04:56:35.396Z,3.67
2018-05-08T04:59:03.264Z,3.50
2018-05-08T05:01:30.877Z,3.53
2018-05-08T05:03:58.531Z,3.47
2018-05-08T05:06:50.760Z,3.30
2018-05-08T05:09:18.467Z,3.57
2018-05-08T05:11:48.006Z,3.87
2018-05-08T05:14:21.597Z,3.60
2018-05-08T05:16:49.412Z,3.40
2018-05-08T05:19:19.033Z,3.20
2018-05-08T05:24:44.929Z,3.70
2018-05-08T05:27:12.779Z,3.47
2018-05-08T05:29:40.651Z,3.43
2018-05-08T05:32:09.839Z,3.13
2018-05-08T05:34:37.835Z,3.20
2018-05-08T05:37:06.572Z,3.10
2018-05-08T05:39:34.419Z,3.50
2018-05-08T05:42:02.225Z,3.30
2018-05-08T05:44:30.683Z,3.20
2018-05-08T05:46:59.190Z,3.67
2018-05-08T05:49:27.662Z,3.80
2018-05-08T05:51:55.298Z,3.27
2018-05-08T05:54:42.265Z,3.40
2018-05-08T05:57:09.940Z,3.30
2018-05-08T05:59:43.735Z,3.70
2018-05-08T06:02:11.493Z,3.23
2018-05-08T06:04:39.159Z,3.77
2018-05-08T06:07:08.239Z,3.23
2018-05-08T06:09:36.015Z,3.37
2018-05-08T06:12:03.737Z,3.40
2018-05-08T06:14:32.078Z,3.33
2018-05-08T06:16:59.747Z,3.30
2018-05-08T06:19:27.407Z,3.60
2018-05-08T06:21:55.793Z,3.57
2018-05-08T06:24:24.160Z,3.33
2018-05-08T06:26:51.841Z,3.43
2018-05-08T06:29:19.612Z,3.20
2018-05-08T06:31:48.815Z,3.87
2018-05-08T06:34:16.719Z,3.17
2018-05-08T06:36:45.385Z,3.40
2018-05-08T06:39:13.938Z,3.60
2018-05-08T06:41:42.453Z,3.17
2018-05-08T06:44:17.573Z,3.53
2018-05-08T06:46:45.425Z,3.40
2018-05-08T06:49:13.183Z,3.57
2018-05-08T06:51:41.750Z,3.40
2018-05-08T06:54:09.573Z,3.37
2018-05-08T06:56:37.609Z,3.57
2018-05-08T06:59:06.017Z,3.07
2018-05-08T07:01:34.598Z,3.10
2018-05-08T07:04:03.003Z,3.30
2018-05-08T07:06:30.776Z,3.13
2018-05-08T07:08:58.509Z,3.20
2018-05-08T07:11:26.330Z,3.40
2018-05-08T07:13:54.422Z,2.87
2018-05-08T07:16:22.974Z,3.30
2018-05-08T07:18:50.685Z,3.00
2018-05-08T07:21:18.507Z,3.03
2018-05-08T07:23:46.239Z,3.20
2018-05-08T07:26:13.999Z,2.90
2018-05-08T07:28:42.668Z,3.20
2018-05-08T07:31:12.566Z,3.00
2018-05-08T07:33:41.492Z,3.03
2018-05-08T07:36:09.351Z,3.37
2018-05-08T07:38:39.419Z,3.33
2018-05-08T07:41:07.203Z,2.83
2018-05-08T07:43:34.980Z,2.70
2018-05-08T07:46:03.483Z,3.00
2018-05-08T07:48:33.670Z,2.93
2018-05-08T07:51:03.161Z,2.73
2018-05-08T07:53:30.934Z,3.03
2018-05-08T07:55:59.068Z,2.87
2018-05-08T07:58:26.756Z,3.33
2018-05-08T08:00:55.327Z,3.03
2018-05-08T08:03:23.049Z,2.80
2018-05-08T08:05:50.698Z,3.10
2018-05-08T08:08:19.884Z,2.73
2018-05-08T08:10:47.746Z,2.93
2018-05-08T08:13:15.537Z,3.10
2018-05-08T08:15:43.603Z,3.00
2018-05-08T08:18:12.879Z,2.70
2018-05-08T08:20:42.349Z,3.37
2018-05-08T08:23:11.755Z,2.77
2018-05-08T08:25:39.445Z,3.20
2018-05-08T08:31:06.423Z,3.70
2018-05-08T08:33:34.480Z,3.10
2018-05-08T08:36:03.854Z,3.60
2018-05-08T08:38:32.351Z,3.93
2018-05-08T08:41:01.986Z,2.70
2018-05-08T08:43:29.578Z,2.50
2018-05-08T08:45:57.875Z,3.43
2018-05-08T08:48:25.543Z,2.50
2018-05-08T08:50:54.225Z,2.50
2018-05-08T08:53:21.871Z,2.43
2018-05-08T08:55:50.235Z,3.00
2018-05-08T08:58:18.405Z,2.43
2018-05-08T09:00:47.550Z,2.70
2018-05-08T09:03:15.961Z,2.80
2018-05-08T09:05:45.845Z,2.60
2018-05-08T09:08:14.097Z,2.30
2018-05-08T09:10:43.018Z,2.40
2018-05-08T09:13:11.358Z,2.77
2018-05-08T09:15:39.924Z,2.40
2018-05-08T09:18:08.799Z,3.07
2018-05-08T09:20:36.439Z,2.50
2018-05-08T09:23:04.064Z,2.40
2018-05-08T09:25:31.703Z,2.43
2018-05-08T09:27:59.430Z,2.37
2018-05-08T09:30:27.040Z,2.00
2018-05-08T09:32:54.759Z,2.13
2018-05-08T09:35:22.787Z,2.20
2018-05-08T09:37:50.425Z,2.40
2018-05-08T09:40:18.155Z,2.33
2018-05-08T09:42:45.790Z,2.07
2018-05-08T09:45:13.485Z,2.17
2018-05-08T09:47:41.136Z,2.07
2018-05-08T09:50:08.822Z,2.40
2018-05-08T09:52:36.484Z,2.20
2018-05-08T09:55:05.295Z,2.17
2018-05-08T09:57:34.685Z,2.17
2018-05-08T10:00:03.241Z,2.30
2018-05-08T10:02:31.841Z,2.60
2018-05-08T10:05:00.445Z,2.50
2018-05-08T10:07:28.256Z,1.93
2018-05-08T10:09:56.619Z,2.20
2018-05-08T10:12:25.064Z,2.30
2018-05-08T10:14:53.658Z,2.40
2018-05-08T10:17:21.518Z,2.20
2018-05-08T10:19:49.580Z,2.30
2018-05-08T10:22:18.810Z,2.40
2018-05-08T10:24:46.538Z,2.10
2018-05-08T10:27:14.268Z,2.30
2018-05-08T10:29:42.556Z,2.40
2018-05-08T10:32:10.844Z,2.70
2018-05-08T10:34:39.581Z,2.37
2018-05-08T10:37:08.494Z,2.20
2018-05-08T10:39:36.230Z,2.20
2018-05-08T10:42:04.658Z,2.17
2018-05-08T10:44:32.864Z,2.30
2018-05-08T10:47:00.501Z,2.07
2018-05-08T10:49:28.193Z,1.80
2018-05-08T10:51:55.883Z,2.13
2018-05-08T10:54:23.594Z,2.07
2018-05-08T10:56:54.830Z,2.20
2018-05-08T10:59:23.409Z,1.90
2018-05-08T11:01:51.103Z,2.03
2018-05-08T11:04:18.733Z,2.30
2018-05-08T11:06:48.680Z,2.17
2018-05-08T11:09:17.085Z,2.00
2018-05-08T11:11:44.734Z,2.37
2018-05-08T11:14:12.431Z,2.30
2018-05-08T11:16:40.950Z,2.20
2018-05-08T11:19:08.870Z,2.20
2018-05-08T11:21:36.980Z,2.07
2018-05-08T11:24:07.090Z,2.00
2018-05-08T11:26:35.587Z,2.20
2018-05-08T11:29:04.270Z,2.40
2018-05-08T11:31:32.611Z,2.40
2018-05-08T11:34:01.876Z,2.30
2018-05-08T11:36:29.570Z,2.40
2018-05-08T11:38:58.177Z,2.50
2018-05-08T11:41:27.398Z,2.40
2018-05-08T11:43:57.859Z,2.70
2018-05-08T11:46:25.635Z,2.27
2018-05-08T11:48:53.461Z,2.40
2018-05-08T11:51:21.143Z,2.40
2018-05-08T11:53:48.839Z,2.40
2018-05-08T11:56:16.527Z,2.50
2018-05-08T11:58:44.167Z,2.50
2018-05-08T12:01:11.841Z,2.57
2018-05-08T12:03:40.353Z,2.60
2018-05-08T12:06:09.001Z,2.03
2018-05-08T12:08:37.370Z,2.50
2018-05-08T12:11:06.798Z,2.30
2018-05-08T12:13:34.443Z,2.40
2018-05-08T12:16:04.800Z,2.20
2018-05-08T12:18:33.527Z,2.40
2018-05-08T12:21:02.840Z,2.60
2018-05-08T12:23:30.474Z,2.57
2018-05-08T12:25:58.181Z,2.23
2018-05-08T12:28:25.903Z,2.67
2018-05-08T12:30:53.674Z,2.40
2018-05-08T12:33:21.486Z,2.27
2018-05-08T12:35:49.907Z,2.23
2018-05-08T12:38:19.321Z,2.37
2018-05-08T12:50:54.058Z,2.40
2018-05-08T12:53:21.898Z,2.50
2018-05-08T12:55:51.342Z,2.20
2018-05-08T12:58:19.764Z,2.33
2018-05-08T13:00:48.136Z,2.10
2018-05-08T13:03:17.923Z,2.07
2018-05-08T13:05:46.664Z,2.40
2018-05-08T13:08:15.160Z,2.00
2018-05-08T13:10:42.930Z,2.23
2018-05-08T13:13:10.716Z,2.20
2018-05-08T13:15:39.784Z,2.50
2018-05-08T13:18:10.812Z,2.57
2018-05-08T13:20:39.491Z,2.00
2018-05-08T13:23:07.221Z,2.23
2018-05-08T13:25:35.693Z,2.47
2018-05-08T13:28:03.509Z,2.60
2018-05-08T13:30:32.792Z,2.80
2018-05-08T13:33:02.481Z,2.50
2018-05-08T13:35:30.922Z,2.27
2018-05-08T13:38:00.442Z,2.20
2018-05-08T13:40:31.117Z,2.57
2018-05-08T13:42:58.930Z,2.40
2018-05-08T13:45:26.771Z,2.07
2018-05-08T13:47:55.199Z,2.27
2018-05-08T13:50:23.533Z,2.53
2018-05-08T13:52:51.933Z,2.60
2018-05-08T13:55:19.908Z,2.50
2018-05-08T13:57:49.932Z,2.13
2018-05-08T14:00:18.494Z,2.60
2018-05-08T14:02:46.226Z,2.63
2018-05-08T14:05:15.115Z,2.50
2018-05-08T14:07:42.819Z,2.20
2018-05-08T14:10:11.294Z,2.47
2018-05-08T14:12:39.796Z,2.60
2018-05-08T14:15:08.088Z,2.73
2018-05-08T14:17:36.890Z,2.60
2018-05-08T14:20:04.726Z,2.40
2018-05-08T14:22:32.426Z,2.53
2018-05-08T14:25:00.239Z,2.87
2018-05-08T14:27:27.986Z,2.60
2018-05-08T14:29:55.662Z,2.50
2018-05-08T14:32:24.461Z,2.87
2018-05-08T14:34:55.260Z,2.50
2018-05-08T14:37:26.018Z,2.50
2018-05-08T14:39:56.336Z,2.53
2018-05-08T14:45:09.904Z,2.70
2018-05-08T14:47:37.765Z,2.57
2018-05-08T14:50:05.700Z,2.73
2018-05-08T14:52:37.938Z,2.77
2018-05-08T14:55:10.157Z,3.03
2018-05-08T14:57:38.954Z,2.90
2018-05-08T15:00:08.738Z,2.90
2018-05-08T15:02:37.273Z,2.97
2018-05-08T15:05:08.474Z,2.77
2018-05-08T15:07:41.262Z,2.90
2018-05-08T15:10:11.526Z,2.90
2018-05-08T15:12:39.170Z,2.70
2018-05-08T15:15:06.759Z,2.53
2018-05-08T15:17:34.428Z,2.90
2018-05-08T15:20:02.039Z,2.70
2018-05-08T15:22:30.440Z,2.80
2018-05-08T15:24:58.807Z,2.87
2018-05-08T15:27:26.464Z,2.63
2018-05-08T15:29:54.061Z,2.77
2018-05-08T15:32:21.790Z,2.60
2018-05-08T15:34:49.392Z,2.67
2018-05-08T15:37:17.003Z,2.67
2018-05-08T15:39:45.380Z,2.70
2018-05-08T15:42:13.765Z,2.70
2018-05-08T15:44:41.394Z,2.63
2018-05-08T15:47:09.130Z,2.80
2018-05-08T15:49:36.730Z,2.93
2018-05-08T15:52:04.361Z,2.60
2018-05-08T15:54:31.971Z,2.83
2018-05-08T15:56:59.601Z,2.70
2018-05-08T15:59:27.210Z,2.40
2018-05-08T16:01:54.839Z,2.50
2018-05-08T16:04:26.210Z,2.40
2018-05-08T16:09:35.190Z,2.50
2018-05-08T16:12:03.034Z,2.37
2018-05-08T16:14:32.117Z,2.60
2018-05-08T16:17:00.360Z,2.20
2018-05-08T16:19:29.355Z,2.43
2018-05-08T16:21:57.041Z,2.27
2018-05-08T16:24:26.572Z,2.40
2018-05-08T16:26:55.727Z,2.50
2018-05-08T16:29:24.289Z,2.40
2018-05-08T16:31:52.131Z,2.77
2018-05-08T16:34:22.688Z,3.30
2018-05-08T16:36:51.389Z,2.30
2018-05-08T16:39:20.000Z,2.40
2018-05-08T16:41:49.039Z,2.20
2018-05-08T16:44:20.280Z,2.20
2018-05-08T16:46:50.097Z,2.30
2018-05-08T16:49:18.828Z,2.40
2018-05-08T16:51:48.796Z,2.37
2018-05-08T16:54:22.125Z,2.77
2018-05-08T16:56:49.916Z,2.47
2018-05-08T16:59:21.258Z,3.53
2018-05-08T17:01:51.077Z,2.30
2018-05-08T17:06:53.773Z,2.47
2018-05-08T17:09:23.311Z,2.47
2018-05-08T17:11:52.908Z,2.30
2018-05-08T17:14:21.500Z,2.27
2018-05-08T17:16:49.192Z,3.90
2018-05-08T17:19:18.700Z,2.87
2018-05-08T17:21:46.348Z,3.00
2018-05-08T17:27:10.812Z,3.90
2018-05-08T17:32:42.185Z,4.17
2018-05-08T17:35:10.013Z,3.10
2018-05-08T17:37:38.630Z,2.87
2018-05-08T17:40:07.192Z,3.10
2018-05-08T17:42:34.863Z,2.70
2018-05-08T17:45:02.518Z,2.90
2018-05-08T17:47:30.967Z,2.40
2018-05-08T17:50:00.253Z,2.40
2018-05-08T17:52:27.975Z,2.70
2018-05-08T17:54:55.577Z,2.50
2018-05-08T17:57:24.739Z,2.67
2018-05-08T17:59:52.387Z,2.60
2018-05-08T18:02:20.035Z,2.67
2018-05-08T18:04:47.659Z,2.33
2018-05-08T18:07:15.997Z,2.60
2018-05-08T18:09:43.705Z,2.73
2018-05-08T18:12:12.058Z,2.67
2018-05-08T18:14:40.541Z,2.60
2018-05-08T18:17:10.081Z,2.53
2018-05-08T18:19:38.695Z,2.50
2018-05-08T18:22:06.454Z,2.60
2018-05-08T18:24:34.147Z,3.00
2018-05-08T18:27:02.071Z,2.60
2018-05-08T18:29:30.678Z,2.90
2018-05-08T18:32:02.836Z,2.63
2018-05-08T18:34:30.674Z,2.80
2018-05-08T18:36:59.340Z,2.67
2018-05-08T18:39:27.690Z,2.57
2018-05-08T18:41:55.373Z,2.57
2018-05-08T18:44:23.889Z,2.60
2018-05-08T18:46:51.563Z,2.70
2018-05-08T18:49:19.270Z,2.90
2018-05-08T18:51:47.671Z,2.53
2018-05-08T18:54:15.367Z,2.73
2018-05-08T18:56:43.004Z,2.87
2018-05-08T18:59:10.767Z,2.87
2018-05-08T19:01:39.306Z,2.83
2018-05-08T19:04:07.182Z,3.00
2018-05-08T19:06:34.761Z,3.07
2018-05-08T19:09:02.424Z,3.10
2018-05-08T19:11:35.773Z,2.97
2018-05-08T19:14:03.421Z,3.13
2018-05-08T19:16:31.858Z,2.97
2018-05-08T19:19:05.047Z,3.10
2018-05-08T19:21:32.718Z,3.37
2018-05-08T19:24:06.132Z,3.23
2018-05-08T19:26:34.603Z,3.13
2018-05-08T19:29:07.937Z,3.20
2018-05-08T19:31:36.016Z,3.20
2018-05-08T19:34:03.743Z,3.30
2018-05-08T19:36:37.100Z,3.27
2018-05-08T19:39:05.692Z,3.07
2018-05-08T19:41:34.269Z,3.10
2018-05-08T19:44:02.060Z,3.00
2018-05-08T19:46:30.048Z,3.50
2018-05-08T19:48:58.188Z,3.17
2018-05-08T19:51:25.908Z,3.87
2018-05-08T19:53:53.629Z,3.67
2018-05-08T19:56:21.278Z,3.50
2018-05-08T19:58:48.933Z,3.43
2018-05-08T20:01:16.729Z,3.60
2018-05-08T20:03:45.175Z,3.43
2018-05-08T20:06:12.808Z,3.80
2018-05-08T20:08:40.593Z,3.67
2018-05-08T20:11:08.233Z,3.40
2018-05-08T20:13:36.527Z,3.60
2018-05-08T20:16:07.747Z,3.43
2018-05-08T20:18:38.385Z,3.60
2018-05-08T20:21:07.146Z,3.67
2018-05-08T20:23:35.559Z,3.67
2018-05-08T20:26:03.966Z,3.77
2018-05-08T20:28:32.426Z,3.93
2018-05-08T20:31:00.083Z,3.73
2018-05-08T20:33:28.011Z,3.60
2018-05-08T20:35:56.179Z,3.60
2018-05-08T20:38:24.065Z,3.93
2018-05-08T20:40:51.673Z,3.80
2018-05-08T20:43:19.321Z,3.80
2018-05-08T20:45:49.704Z,3.60
2018-05-08T20:48:17.451Z,3.63
2018-05-08T20:50:48.536Z,3.70
2018-05-08T20:53:16.850Z,4.00
2018-05-08T20:55:46.156Z,3.60
2018-05-08T20:58:15.082Z,3.97
2018-05-08T21:00:43.076Z,4.30
2018-05-08T21:03:11.610Z,3.47
2018-05-08T21:05:40.624Z,4.10
2018-05-08T21:08:09.108Z,3.90
2018-05-08T21:10:37.713Z,3.63
2018-05-08T21:13:06.531Z,3.70
2018-05-08T21:15:34.369Z,3.70
2018-05-08T21:18:02.459Z,3.80
2018-05-08T21:20:30.224Z,4.43
2018-05-08T21:22:58.407Z,3.97
2018-05-08T21:25:27.093Z,4.10
2018-05-08T21:31:01.394Z,3.93
2018-05-08T21:33:29.816Z,4.30
2018-05-08T21:35:57.441Z,3.60
2018-05-08T21:38:25.051Z,4.07
2018-05-08T21:40:52.696Z,3.93
2018-05-08T21:43:20.306Z,3.87
2018-05-08T21:45:47.939Z,3.93
2018-05-08T21:48:16.505Z,3.97
2018-05-08T21:50:45.166Z,4.10
2018-05-08T21:53:12.880Z,3.93
2018-05-08T21:55:42.165Z,3.80
2018-05-08T21:58:10.325Z,4.20
2018-05-08T22:00:38.388Z,4.20
2018-05-08T22:03:06.869Z,4.10
2018-05-08T22:05:35.395Z,4.10
2018-05-08T22:08:03.184Z,4.60
2018-05-08T22:10:31.315Z,4.13
2018-05-08T22:13:01.372Z,3.80
2018-05-08T22:15:30.052Z,4.33
2018-05-08T22:17:58.876Z,4.10
2018-05-08T22:20:26.660Z,3.87
2018-05-08T22:22:54.312Z,3.80
2018-05-08T22:25:23.443Z,3.93
2018-05-08T22:27:52.751Z,3.87
2018-05-08T22:30:20.540Z,4.00
2018-05-08T22:32:48.785Z,4.13
2018-05-08T22:35:17.068Z,4.00
2018-05-08T22:37:48.783Z,4.00
2018-05-08T22:40:18.740Z,4.00
2018-05-08T22:42:47.073Z,4.47
2018-05-08T22:45:15.525Z,4.43
2018-05-08T22:47:43.265Z,3.80
2018-05-08T22:50:12.129Z,3.97
2018-05-08T22:52:41.735Z,3.70
2018-05-08T22:55:10.418Z,4.13
2018-05-08T22:57:38.687Z,4.30
2018-05-08T23:00:07.184Z,4.27
2018-05-08T23:02:36.010Z,4.27
2018-05-08T23:05:04.769Z,3.97
2018-05-08T23:07:33.178Z,3.83
2018-05-08T23:10:02.355Z,3.97
2018-05-08T23:12:30.496Z,3.83
2018-05-08T23:14:58.897Z,4.27
2018-05-08T23:17:26.567Z,3.83
2018-05-08T23:19:54.205Z,4.00
2018-05-08T23:22:23.797Z,3.93
2018-05-08T23:24:52.140Z,4.00
2018-05-08T23:27:20.440Z,4.10
2018-05-08T23:29:48.260Z,3.97
2018-05-08T23:32:15.900Z,4.33
2018-05-08T23:34:44.190Z,3.90
2018-05-08T23:37:12.508Z,4.20
2018-05-08T23:39:41.371Z,3.90
2018-05-08T23:42:10.839Z,4.33
2018-05-08T23:44:38.783Z,4.00
2018-05-08T23:47:06.416Z,4.20
2018-05-08T23:49:34.122Z,4.17
2018-05-08T23:52:01.809Z,4.30
2018-05-08T23:54:29.421Z,4.13
2018-05-08T23:56:57.388Z,4.17
2018-05-08T23:59:25.160Z,4.00
